Flight Track Log - Related Links

Times and Time Zones

All times are in EDT time to prevent confusion due to time zone crossing. See the GPD95 flight status page for this flight to view local times or setup timezone preferences in your user account.

Time Position Orientation Groundspeed Altitude Reporting Facility
EDT Latitude Longitude Course Direction KTS MPH feet Rate Location/Type
Wed 04:40:01 PM 21.7453 -72.3089 154° Southeast 174 200 2,100  Level Miami Center
Wed 04:41:01 PM 21.7217 -72.2850 137° Southeast 152 175 2,600 550 Climbing Miami Center
Wed 04:42:01 PM 21.6956 -72.2569 135° Southeast 135 155 3,200 550 Climbing Miami Center
Wed 04:43:01 PM 21.6697 -72.2286 134° Southeast 135 155 3,700 500 Climbing Miami Center
Wed 04:44:00 PM 21.6462 -72.0131 140° Southeast  Level Estimated
Wed 04:44:01 PM 21.6439 -72.2028 137° Southeast 130 150 4,200  Level Miami Center
Wed 04:45:00 PM 21.6061 -71.9922 154° Southeast  Level FlightAware Approximate
Wed 04:45:01 PM 21.6181 -72.1747 135° Southeast 130 150 4,700  Level Miami Center
Wed 04:46:01 PM 21.5922 -72.1511 140° Southeast 125 144 5,200 500 Climbing Miami Center
Wed 04:47:01 PM 21.5706 -72.1228 129° Southeast 120 138 5,700 500 Climbing Miami Center
Wed 04:48:01 PM 21.5411 -72.1106 159° South 120 138 6,200 500 Climbing Miami Center
Wed 04:49:01 PM 21.5153 -72.0936 149° Southeast 115 132 6,700 550 Climbing Miami Center
Wed 04:50:01 PM 21.4936 -72.0631 127° Southeast 120 138 7,300 550 Climbing Miami Center
Wed 04:51:01 PM 21.4656 -72.0353 137° Southeast 126 145 7,800 500 Climbing Miami Center
Wed 04:52:01 PM 21.4439 -72.0047 127° Southeast 131 151 8,300 500 Climbing Miami Center
Wed 04:53:01 PM 21.4197 -71.9744 131° Southeast 131 151 8,800 400 Climbing Miami Center
Wed 04:54:01 PM 21.3939 -71.9442 132° Southeast 131 151 9,100 150 Climbing Miami Center
Wed 04:55:01 PM 21.3614 -71.9097 135° Southeast 143 165 9,100  Level Miami Center
Wed 04:56:01 PM 21.3211 -71.8867 152° Southeast 156 180 9,100  Level Miami Center
Wed 04:57:01 PM 21.2886 -71.8544 137° Southeast 161 185 9,100  Level Miami Center
Wed 04:58:01 PM 21.2583 -71.8178 132° Southeast 166 191 9,100  Level Miami Center
Wed 04:59:13 PM 21.2214 -71.7725 131° Southeast 171 197 9,100  Level Miami Center
Wed 05:00:13 PM 21.1908 -71.7358 132° Southeast 171 197 9,100  Level Miami Center
Wed 05:01:13 PM 21.1606 -71.6969 130° Southeast 166 191 9,100  Level Miami Center
Wed 05:02:13 PM 21.1300 -71.6603 132° Southeast 166 191 9,100  Level Miami Center
Wed 05:03:13 PM 21.1061 -71.6281 128° Southeast 161 185 9,100  Level Miami Center
Wed 05:04:13 PM 21.0669 -71.5850 134° Southeast 161 185 9,100  Level Miami Center
Wed 05:05:13 PM 21.0364 -71.5461 130° Southeast 161 185 9,100  Level Miami Center
Wed 05:06:13 PM 21.0061 -71.5097 132° Southeast 161 185 9,100  Level Miami Center
Wed 05:07:13 PM 20.9756 -71.4731 132° Southeast 161 185 9,100  Level Miami Center
Wed 05:08:13 PM 20.9450 -71.4344 130° Southeast 161 185 9,100  Level Miami Center
Wed 05:09:13 PM 20.9125 -71.3978 133° Southeast 161 185 9,100  Level Miami Center
Wed 05:10:13 PM 20.8819 -71.3592 130° Southeast 161 185 9,100  Level Miami Center
Wed 05:11:13 PM 20.8514 -71.3228 132° Southeast 161 185 9,100  Level Miami Center
Wed 05:12:13 PM 20.8208 -71.2842 130° Southeast 161 185 9,100  Level Miami Center
Wed 05:13:13 PM 20.7881 -71.2478 134° Southeast 161 185 9,100  Level Miami Center
Wed 05:14:13 PM 20.7575 -71.2092 130° Southeast 161 185 9,100  Level Miami Center
Wed 05:15:13 PM 20.7269 -71.1728 132° Southeast 161 185 9,100  Level Miami Center
Wed 05:16:13 PM 20.6964 -71.1364 132° Southeast 161 185 9,100  Level Miami Center
Wed 05:17:13 PM 20.6639 -71.0978 132° Southeast 161 185 9,100  Level Miami Center
Wed 05:18:13 PM 20.6333 -71.0614 132° Southeast 161 185 9,100  Level Miami Center
Wed 05:19:13 PM 20.6047 -71.0228 128° Southeast 161 185 9,100  Level Miami Center
Wed 05:20:13 PM 20.5742 -70.9886 134° Southeast 161 185 9,100  Level Miami Center
Wed 05:21:13 PM 20.5436 -70.9522 132° Southeast 161 185 9,100  Level Miami Center
Wed 05:22:13 PM 20.5153 -70.9158 130° Southeast 161 185 9,100  Level Miami Center
Wed 05:23:13 PM 20.4847 -70.8819 134° Southeast 161 185 9,100  Level Miami Center
Wed 05:24:13 PM 20.4542 -70.8456 132° Southeast 161 185 9,100  Level Miami Center
Wed 05:25:13 PM 20.4236 -70.8094 132° Southeast 161 185 9,100 -2 Level Miami Center
Wed 05:27:00 PM 20.3594 -70.7646 163° South  Level FlightAware Approximate
Wed 05:34:00 PM 20.0485 -70.6634 163° South  Level FlightAware Approximate
Wed 05:35:00 PM 20.0040 -70.6490 163° South  Level FlightAware Approximate
Wed 05:36:00 PM 19.9596 -70.6346 163° South  Level FlightAware Approximate
Wed 05:37:00 PM 19.9152 -70.6202 163° South  Level FlightAware Approximate
Wed 05:38:00 PM 19.8708 -70.6058 163° South  Level FlightAware Approximate
Wed 05:39:00 PM 19.8263 -70.5914 163° South  Level FlightAware Approximate
Wed 05:40:00 PM 19.7819 -70.5770 163° South  Level FlightAware Approximate
Wed 05:41:00 PM 19.7455 -70.5536 110° East  Level FlightAware Approximate
Wed 05:42:00 PM 19.7294 -70.5073 110° East  Level FlightAware Approximate
Wed 05:43:00 PM 19.7132 -70.4611 110° East  Level FlightAware Approximate
Wed 05:44:00 PM 19.6971 -70.4148 110° East  Level FlightAware Approximate
Wed 05:45:00 PM 19.6810 -70.3685 110° East  Level FlightAware Approximate
Wed 05:46:00 PM 19.6648 -70.3223 110° East  Level FlightAware Approximate
Wed 05:47:00 PM 19.6487 -70.2760 110° East  Level FlightAware Approximate
Wed 05:48:00 PM 19.6325 -70.2298 110° East  Level FlightAware Approximate
Wed 05:49:00 PM 19.6163 -70.1836 110° East  Level FlightAware Approximate
Wed 05:50:00 PM 19.6001 -70.1374 110° East  Level FlightAware Approximate
Wed 05:51:00 PM 19.5839 -70.0912 110° East  Level FlightAware Approximate
Wed 05:52:00 PM 19.5677 -70.0450 110° East  Level FlightAware Approximate
Wed 05:53:00 PM 19.5515 -69.9988 110° East  Level FlightAware Approximate
Wed 05:54:00 PM 19.5352 -69.9526 110° East  Level FlightAware Approximate
Wed 05:55:00 PM 19.5189 -69.9065 110° East  Level FlightAware Approximate
Wed 05:56:00 PM 19.5023 -69.8605 111° Southeast  Level FlightAware Approximate
Wed 05:57:00 PM 19.4856 -69.8145 111° Southeast  Level FlightAware Approximate
Wed 05:58:00 PM 19.4689 -69.7685 111° Southeast  Level FlightAware Approximate
Wed 05:59:00 PM 19.4522 -69.7226 111° Southeast  Level FlightAware Approximate
Wed 06:00:00 PM 19.4357 -69.6765 111° Southeast  Level FlightAware Approximate
Wed 06:01:00 PM 19.4193 -69.6304 111° Southeast  Level FlightAware Approximate
Wed 06:02:00 PM 19.4029 -69.5844 111° Southeast  Level FlightAware Approximate
Wed 06:03:00 PM 19.3865 -69.5383 111° Southeast  Level FlightAware Approximate
Wed 06:04:00 PM 19.3700 -69.4922 111° Southeast  Level FlightAware Approximate
Wed 06:05:00 PM 19.3536 -69.4462 111° Southeast  Level FlightAware Approximate
Wed 06:06:00 PM 19.3371 -69.4002 111° Southeast  Level FlightAware Approximate
Wed 06:07:00 PM 19.3207 -69.3541 111° Southeast  Level FlightAware Approximate
Wed 06:08:00 PM 19.3042 -69.3081 111° Southeast  Level FlightAware Approximate
Wed 06:08:05 PM 19.3333 -69.2667 110° East 170 196 9,000  Level San Juan Center
Wed 06:09:00 PM 19.2877 -69.2621 111° Southeast  Level FlightAware Approximate
Wed 06:09:06 PM 19.3333 -69.2167 90° East 170 196 9,000  Level San Juan Center
Wed 06:10:00 PM 19.2714 -69.2161 110° East  Level FlightAware Approximate
Wed 06:10:06 PM 19.3167 -69.1667 109° East 170 196 9,000  Level San Juan Center
Wed 06:11:00 PM 19.2551 -69.1700 110° East  Level FlightAware Approximate
Wed 06:11:16 PM 19.3167 -69.1167 90° East 160 184 9,000  Level San Juan Center
Wed 06:12:00 PM 19.2389 -69.1239 110° East  Level FlightAware Approximate
Wed 06:12:16 PM 19.3167 -69.0667 90° East 180 207 9,000  Level San Juan Center
Wed 06:13:00 PM 19.2226 -69.0778 110° East  Level FlightAware Approximate
Wed 06:13:16 PM 19.3167 -69.0167 90° East 170 196 9,000  Level San Juan Center
Wed 06:14:16 PM 19.3167 -68.9667 90° East 160 184 9,000  Level San Juan Center
Wed 06:15:17 PM 19.3167 -68.9167 90° East 150 173 9,000  Level San Juan Center
Wed 06:16:17 PM 19.3167 -68.8667 90° East 160 184 9,000  Level San Juan Center
Wed 06:17:17 PM 19.3000 -68.8167 109° East 160 184 9,000  Level San Juan Center
Wed 06:18:16 PM 19.3000 -68.7667 90° East 170 196 9,000  Level San Juan Center
Wed 06:19:17 PM 19.2833 -68.7167 109° East 170 196 9,000  Level San Juan Center
Wed 06:20:17 PM 19.2667 -68.6833 118° Southeast 160 184 9,000  Level San Juan Center
Wed 06:21:17 PM 19.2333 -68.6333 125° Southeast 170 196 9,000  Level San Juan Center
Wed 06:22:17 PM 19.2167 -68.6000 118° Southeast 160 184 9,000  Level San Juan Center
Wed 06:23:17 PM 19.2000 -68.5500 109° East 160 184 9,000  Level San Juan Center
Wed 06:24:18 PM 19.1667 -68.5167 137° Southeast 160 184 9,000  Level San Juan Center
Wed 06:25:18 PM 19.1500 -68.4833 118° Southeast 160 184 9,000  Level San Juan Center
Wed 06:26:18 PM 19.1167 -68.4333 125° Southeast 170 196 9,000  Level San Juan Center
Wed 06:27:18 PM 19.0833 -68.4000 137° Southeast 160 184 9,000  Level San Juan Center
Wed 06:28:18 PM 19.0667 -68.3667 118° Southeast 160 184 9,000  Level San Juan Center
Wed 06:29:18 PM 19.0500 -68.3333 118° Southeast 150 173 9,000  Level San Juan Center
Wed 06:30:19 PM 19.0167 -68.2833 125° Southeast 160 184 9,000  Level San Juan Center
Wed 06:31:19 PM 19.0000 -68.2500 118° Southeast 150 173 9,000  Level San Juan Center
Wed 06:32:18 PM 18.9667 -68.2167 137° Southeast 160 184 9,000  Level San Juan Center
Wed 06:33:19 PM 18.9333 -68.1667 125° Southeast 150 173 9,000  Level San Juan Center
Wed 06:34:19 PM 18.9167 -68.1333 118° Southeast 150 173 9,000  Level San Juan Center
Wed 06:35:19 PM 18.8833 -68.1000 137° Southeast 150 173 9,000  Level San Juan Center
Wed 06:36:19 PM 18.8667 -68.0500 109° East 160 184 9,000  Level San Juan Center
Wed 06:37:19 PM 18.8333 -68.0167 137° Southeast 160 184 9,000  Level San Juan Center
Wed 06:38:19 PM 18.8167 -67.9833 118° Southeast 160 184 9,000  Level San Juan Center
Wed 06:39:20 PM 18.8000 -67.9333 109° East 160 184 9,000  Level San Juan Center
Wed 06:40:20 PM 18.7833 -67.8833 109° East 160 184 9,000  Level San Juan Center
Wed 06:41:20 PM 18.7667 -67.8500 118° Southeast 160 184 9,000  Level San Juan Center
Wed 06:42:20 PM 18.7500 -67.8000 109° East 170 196 9,000  Level San Juan Center
Wed 06:43:20 PM 18.7333 -67.7500 109° East 160 184 9,000  Level San Juan Center
Wed 06:44:20 PM 18.7167 -67.7167 118° Southeast 160 184 9,000  Level San Juan Center
Wed 06:45:20 PM 18.7000 -67.6667 109° East 170 196 9,000  Level San Juan Center
Wed 06:46:20 PM 18.6833 -67.6333 118° Southeast 160 184 9,000  Level San Juan Center
Wed 06:47:20 PM 18.6667 -67.5833 109° East 170 196 9,000  Level San Juan Center
Wed 06:48:21 PM 18.6500 -67.5333 109° East 160 184 9,000  Level San Juan Center
Wed 06:49:21 PM 18.6333 -67.5000 118° Southeast 160 184 9,000  Level San Juan Center
Wed 06:50:21 PM 18.6167 -67.4500 109° East 160 184 9,000  Level San Juan Center
Wed 06:51:21 PM 18.6000 -67.4000 109° East 170 196 9,000  Level San Juan Center
Wed 06:52:21 PM 18.5833 -67.3500 109° East 160 184 9,000  Level San Juan Center
Wed 06:53:21 PM 18.5667 -67.3000 109° East 170 196 9,000  Level San Juan Center
Wed 06:54:22 PM 18.5500 -67.2667 118° Southeast 160 184 9,000  Level San Juan Center
Wed 06:55:22 PM 18.5333 -67.2167 109° East 160 184 9,000  Level San Juan Center
Wed 06:56:22 PM 18.5167 -67.1667 109° East 170 196 9,000 -50 Level San Juan Center
Wed 06:57:22 PM 18.5000 -67.1333 118° Southeast 180 207 8,900 -300 Descending San Juan Center
Wed 06:58:22 PM 18.4833 -67.0667 105° East 180 207 8,400 -450 Descending San Juan Center
Wed 06:59:22 PM 18.4833 -67.0167 90° East 170 196 8,000 -400 Descending San Juan Center
Wed 07:00:22 PM 18.4833 -66.9833 90° East 160 184 7,600 -500 Descending San Juan Center
Wed 07:01:22 PM 18.4833 -66.9333 90° East 180 207 7,000 -298 Descending San Juan Center
Wed 07:02:23 PM 18.4833 -66.8833 90° East 170 196 7,000  Level San Juan Center
Wed 07:03:23 PM 18.4833 -66.8333 90° East 160 184 7,000 50 Level San Juan Center
Wed 07:04:23 PM 18.4667 -66.7833 109° East 160 184 7,100 50 Climbing San Juan Center
Wed 07:05:23 PM 18.4667 -66.7333 90° East 160 184 7,100  Level San Juan Center
Wed 07:06:23 PM 18.4667 -66.6833 90° East 160 184 7,100 -150 Level San Juan Center
Wed 07:07:23 PM 18.4667 -66.6333 90° East 170 196 6,800 -400 Descending San Juan Center
Wed 07:08:23 PM 18.4500 -66.5833 109° East 180 207 6,300 -500 Descending San Juan Center
Wed 07:09:23 PM 18.4333 -66.5333 109° East 190 219 5,800 -496 Descending San Juan Center
Wed 07:10:24 PM 18.4333 -66.4833 90° East 180 207 5,300 -496 Descending San Juan Center
Wed 07:11:24 PM 18.4167 -66.4333 109° East 170 196 4,800 -550 Descending San Juan Center
Wed 07:12:24 PM 18.4333 -66.3833 71° East 170 196 4,200 -600 Descending San Juan Center
Wed 07:13:24 PM 18.4167 -66.3333 109° East 170 196 3,600 -700 Descending San Juan Center
Wed 07:14:24 PM 18.4333 -66.2833 71° East 170 196 2,800 -750 Descending San Juan Center
Wed 07:15:24 PM 18.4333 -66.2333 90° East 170 196 2,100 -450 Descending San Juan Center
Wed 07:16:24 PM 18.4333 -66.1833 90° East 160 184 1,900 -50 Descending San Juan Center
Wed 07:17:25 PM 18.4333 -66.1500 90° East 140 161 2,000 -100 Climbing San Juan Center
Wed 07:18:24 PM 18.4333 -66.1000 90° East 150 173 1,700 -350 Descending San Juan Center
Wed 07:19:25 PM 18.4333 -66.0667 90° East 110 127 1,300 -496 Descending San Juan Center
Wed 07:20:25 PM 18.4333 -66.0333 90° East 100 115 700 -450 Descending San Juan Center
Wed 07:21:25 PM 18.4333 -66.0167 90° East 70 81 400 -300 Descending San Juan Center

Login

Don't have an account? Register now (free) for customized features, flight alerts, and more!